Antler, North Dakota
Current Conditions -  °F | °C
As of 5:58 AM on Thursday 27 Nov 2014 (Local Time) from KMIB Reporting Station
Light Snow Light Snow  
Wind Chill: -25°   Ceiling: 400
Heat Index: -11°   Visibility: 10mi
Dew Point: -16°   Wind: 6mph
Humidity: 80%   Direction: 130°SE
Pressure: 30.31"   Gusts: NA
Location:  48.97°N, 101.28°W
Report Text: KMIB 271158Z AUTO 13005KT 10SM -SN OVC004 M24/M26 A3031 RMK AO2 VIS 1/2 RWY29 SNB1150 SLP332 P0000 60000 T12391265 11202 21317 57026
Loading
Personal Weather Stations






























Interactive Weather Map New forecast layout! Learn more

10-Day Weather Forecast

Advertisements
Track Severe Weather on mobile